sensor_id;sensor_type;location;lat;lon;timestamp;temperature;humidity
23813;DHT22;12087;45.190;5.688;2022-09-28T00:01:05;13.30;99.90
23813;DHT22;12087;45.190;5.688;2022-09-28T00:06:28;13.20;99.90
23813;DHT22;12087;45.190;5.688;2022-09-28T00:11:52;13.20;99.90
23813;DHT22;12087;45.190;5.688;2022-09-28T00:17:16;13.10;99.90
23813;DHT22;12087;45.190;5.688;2022-09-28T00:22:41;13.10;99.90
23813;DHT22;12087;45.190;5.688;2022-09-28T00:28:05;13.20;99.90
23813;DHT22;12087;45.190;5.688;2022-09-28T00:33:27;13.10;99.90
23813;DHT22;12087;45.190;5.688;2022-09-28T00:38:49;13.10;99.90
23813;DHT22;12087;45.190;5.688;2022-09-28T00:44:39;13.10;99.90
23813;DHT22;12087;45.190;5.688;2022-09-28T00:50:05;13.10;99.90
23813;DHT22;12087;45.190;5.688;2022-09-28T00:55:32;13.00;99.90
23813;DHT22;12087;45.190;5.688;2022-09-28T01:00:57;13.00;99.90
23813;DHT22;12087;45.190;5.688;2022-09-28T01:06:21;12.90;99.90
23813;DHT22;12087;45.190;5.688;2022-09-28T01:11:47;12.90;99.90
23813;DHT22;12087;45.190;5.688;2022-09-28T01:17:13;12.90;99.90
23813;DHT22;12087;45.190;5.688;2022-09-28T01:23:06;12.90;99.90
23813;DHT22;12087;45.190;5.688;2022-09-28T01:28:34;12.80;99.90
23813;DHT22;12087;45.190;5.688;2022-09-28T01:34:00;12.80;99.90
23813;DHT22;12087;45.190;5.688;2022-09-28T01:39:28;12.80;99.90
23813;DHT22;12087;45.190;5.688;2022-09-28T01:44:57;12.80;99.90
23813;DHT22;12087;45.190;5.688;2022-09-28T01:50:23;12.80;99.90
23813;DHT22;12087;45.190;5.688;2022-09-28T01:55:51;12.70;99.90
23813;DHT22;12087;45.190;5.688;2022-09-28T02:01:19;12.70;99.90
23813;DHT22;12087;45.190;5.688;2022-09-28T02:06:47;12.70;99.90
23813;DHT22;12087;45.190;5.688;2022-09-28T02:12:16;12.70;99.90
23813;DHT22;12087;45.190;5.688;2022-09-28T02:17:41;12.60;99.90
23813;DHT22;12087;45.190;5.688;2022-09-28T02:23:04;12.50;99.90
23813;DHT22;12087;45.190;5.688;2022-09-28T02:28:28;12.50;99.90
23813;DHT22;12087;45.190;5.688;2022-09-28T02:33:53;12.50;99.90
23813;DHT22;12087;45.190;5.688;2022-09-28T02:39:16;12.40;99.90
23813;DHT22;12087;45.190;5.688;2022-09-28T02:44:48;12.40;99.90
23813;DHT22;12087;45.190;5.688;2022-09-28T02:50:20;12.30;99.90
23813;DHT22;12087;45.190;5.688;2022-09-28T02:55:53;12.30;99.90
23813;DHT22;12087;45.190;5.688;2022-09-28T03:01:22;12.30;99.90
23813;DHT22;12087;45.190;5.688;2022-09-28T03:06:53;12.30;99.90
23813;DHT22;12087;45.190;5.688;2022-09-28T03:12:18;12.30;99.90
23813;DHT22;12087;45.190;5.688;2022-09-28T03:17:41;12.30;99.90
23813;DHT22;12087;45.190;5.688;2022-09-28T03:23:05;12.40;99.90
23813;DHT22;12087;45.190;5.688;2022-09-28T03:28:27;12.40;99.90
23813;DHT22;12087;45.190;5.688;2022-09-28T03:33:50;12.40;99.90
23813;DHT22;12087;45.190;5.688;2022-09-28T03:39:14;12.50;99.90
23813;DHT22;12087;45.190;5.688;2022-09-28T03:44:36;12.50;99.90
23813;DHT22;12087;45.190;5.688;2022-09-28T03:49:58;12.50;99.90
23813;DHT22;12087;45.190;5.688;2022-09-28T03:55:22;12.50;99.90
23813;DHT22;12087;45.190;5.688;2022-09-28T04:00:44;12.50;99.90
23813;DHT22;12087;45.190;5.688;2022-09-28T04:06:06;12.50;99.90
23813;DHT22;12087;45.190;5.688;2022-09-28T04:11:30;12.40;99.90
23813;DHT22;12087;45.190;5.688;2022-09-28T04:16:52;12.40;99.90
23813;DHT22;12087;45.190;5.688;2022-09-28T04:22:15;12.40;99.90
23813;DHT22;12087;45.190;5.688;2022-09-28T04:27:38;12.30;99.90
23813;DHT22;12087;45.190;5.688;2022-09-28T04:33:18;12.30;99.90
23813;DHT22;12087;45.190;5.688;2022-09-28T04:38:40;12.40;99.90
23813;DHT22;12087;45.190;5.688;2022-09-28T04:44:04;12.30;99.90
23813;DHT22;12087;45.190;5.688;2022-09-28T04:49:26;12.40;99.90
23813;DHT22;12087;45.190;5.688;2022-09-28T04:54:48;12.50;99.90
23813;DHT22;12087;45.190;5.688;2022-09-28T05:00:13;12.40;99.90
23813;DHT22;12087;45.190;5.688;2022-09-28T05:05:42;12.50;99.90
23813;DHT22;12087;45.190;5.688;2022-09-28T05:11:08;12.50;99.90
23813;DHT22;12087;45.190;5.688;2022-09-28T05:16:32;12.50;99.90
23813;DHT22;12087;45.190;5.688;2022-09-28T05:21:55;12.50;99.90
23813;DHT22;12087;45.190;5.688;2022-09-28T05:27:18;12.40;99.90
23813;DHT22;12087;45.190;5.688;2022-09-28T05:32:42;12.50;99.90
23813;DHT22;12087;45.190;5.688;2022-09-28T05:38:05;12.40;99.90
23813;DHT22;12087;45.190;5.688;2022-09-28T05:43:27;12.40;99.90
23813;DHT22;12087;45.190;5.688;2022-09-28T05:48:51;12.40;99.90
23813;DHT22;12087;45.190;5.688;2022-09-28T05:54:13;12.40;99.90
23813;DHT22;12087;45.190;5.688;2022-09-28T05:59:36;12.30;99.90
23813;DHT22;12087;45.190;5.688;2022-09-28T06:05:04;12.40;99.90
23813;DHT22;12087;45.190;5.688;2022-09-28T06:10:27;12.40;99.90
23813;DHT22;12087;45.190;5.688;2022-09-28T06:15:53;12.40;99.90
23813;DHT22;12087;45.190;5.688;2022-09-28T06:21:19;12.50;99.90
23813;DHT22;12087;45.190;5.688;2022-09-28T06:26:42;12.40;99.90
23813;DHT22;12087;45.190;5.688;2022-09-28T06:32:05;12.50;99.90
23813;DHT22;12087;45.190;5.688;2022-09-28T06:37:29;12.40;99.90
23813;DHT22;12087;45.190;5.688;2022-09-28T06:42:57;12.40;99.90
23813;DHT22;12087;45.190;5.688;2022-09-28T06:48:19;12.40;99.90
23813;DHT22;12087;45.190;5.688;2022-09-28T06:53:43;12.40;99.90
23813;DHT22;12087;45.190;5.688;2022-09-28T06:59:05;12.40;99.90
23813;DHT22;12087;45.190;5.688;2022-09-28T07:04:27;12.50;99.90
23813;DHT22;12087;45.190;5.688;2022-09-28T07:09:54;12.50;99.90
23813;DHT22;12087;45.190;5.688;2022-09-28T07:15:18;12.50;99.90
23813;DHT22;12087;45.190;5.688;2022-09-28T07:20:41;12.60;99.90
23813;DHT22;12087;45.190;5.688;2022-09-28T07:26:05;12.60;99.90
23813;DHT22;12087;45.190;5.688;2022-09-28T07:31:28;12.60;99.90
23813;DHT22;12087;45.190;5.688;2022-09-28T07:36:51;12.70;99.90
23813;DHT22;12087;45.190;5.688;2022-09-28T07:42:18;12.70;99.90
23813;DHT22;12087;45.190;5.688;2022-09-28T07:47:40;12.70;99.90
23813;DHT22;12087;45.190;5.688;2022-09-28T07:53:03;12.80;99.90
23813;DHT22;12087;45.190;5.688;2022-09-28T07:58:27;12.80;99.90
23813;DHT22;12087;45.190;5.688;2022-09-28T08:03:52;12.90;99.90
23813;DHT22;12087;45.190;5.688;2022-09-28T08:09:16;12.90;99.90
23813;DHT22;12087;45.190;5.688;2022-09-28T08:14:40;13.00;99.90
23813;DHT22;12087;45.190;5.688;2022-09-28T08:20:17;13.00;99.90
23813;DHT22;12087;45.190;5.688;2022-09-28T08:26:00;13.20;99.90
23813;DHT22;12087;45.190;5.688;2022-09-28T08:31:26;13.30;99.90
23813;DHT22;12087;45.190;5.688;2022-09-28T08:36:49;13.40;99.90
23813;DHT22;12087;45.190;5.688;2022-09-28T08:42:23;13.40;99.90
23813;DHT22;12087;45.190;5.688;2022-09-28T08:47:54;13.40;99.90
23813;DHT22;12087;45.190;5.688;2022-09-28T08:53:39;13.40;99.90
23813;DHT22;12087;45.190;5.688;2022-09-28T08:59:08;13.40;99.90
23813;DHT22;12087;45.190;5.688;2022-09-28T09:04:33;13.50;99.90
23813;DHT22;12087;45.190;5.688;2022-09-28T09:10:03;13.50;99.90
23813;DHT22;12087;45.190;5.688;2022-09-28T09:15:39;13.60;99.90
23813;DHT22;12087;45.190;5.688;2022-09-28T09:21:11;13.70;99.90
23813;DHT22;12087;45.190;5.688;2022-09-28T09:26:36;13.80;99.90
23813;DHT22;12087;45.190;5.688;2022-09-28T09:32:13;13.90;99.90
23813;DHT22;12087;45.190;5.688;2022-09-28T09:37:58;14.10;99.90
23813;DHT22;12087;45.190;5.688;2022-09-28T09:43:57;14.10;99.90
23813;DHT22;12087;45.190;5.688;2022-09-28T09:49:25;14.20;99.90
23813;DHT22;12087;45.190;5.688;2022-09-28T09:54:54;14.20;99.90
23813;DHT22;12087;45.190;5.688;2022-09-28T10:00:18;14.30;99.90
23813;DHT22;12087;45.190;5.688;2022-09-28T10:05:43;14.30;99.90
23813;DHT22;12087;45.190;5.688;2022-09-28T10:11:10;14.30;99.90
23813;DHT22;12087;45.190;5.688;2022-09-28T10:16:34;14.30;99.90
23813;DHT22;12087;45.190;5.688;2022-09-28T10:21:58;14.30;99.90
23813;DHT22;12087;45.190;5.688;2022-09-28T10:27:26;14.30;99.90
23813;DHT22;12087;45.190;5.688;2022-09-28T10:32:50;14.30;99.90
23813;DHT22;12087;45.190;5.688;2022-09-28T10:38:16;14.30;99.90
23813;DHT22;12087;45.190;5.688;2022-09-28T10:43:51;14.30;99.90
23813;DHT22;12087;45.190;5.688;2022-09-28T10:49:26;14.40;99.90
23813;DHT22;12087;45.190;5.688;2022-09-28T10:54:52;14.40;99.90
23813;DHT22;12087;45.190;5.688;2022-09-28T11:00:31;14.40;99.90
23813;DHT22;12087;45.190;5.688;2022-09-28T11:05:55;14.50;99.90
23813;DHT22;12087;45.190;5.688;2022-09-28T11:11:18;14.50;99.90
23813;DHT22;12087;45.190;5.688;2022-09-28T11:16:43;14.60;99.90
23813;DHT22;12087;45.190;5.688;2022-09-28T11:22:19;14.60;99.90
23813;DHT22;12087;45.190;5.688;2022-09-28T11:27:42;14.70;99.90
23813;DHT22;12087;45.190;5.688;2022-09-28T11:33:25;14.70;99.90
23813;DHT22;12087;45.190;5.688;2022-09-28T11:38:56;14.80;99.90
23813;DHT22;12087;45.190;5.688;2022-09-28T11:44:37;14.90;99.90
23813;DHT22;12087;45.190;5.688;2022-09-28T11:50:05;14.90;99.90
23813;DHT22;12087;45.190;5.688;2022-09-28T11:55:33;14.90;99.90
23813;DHT22;12087;45.190;5.688;2022-09-28T12:01:01;14.90;99.90
23813;DHT22;12087;45.190;5.688;2022-09-28T12:06:31;14.90;99.90
23813;DHT22;12087;45.190;5.688;2022-09-28T12:11:59;15.00;99.90
23813;DHT22;12087;45.190;5.688;2022-09-28T12:17:26;15.10;99.90
23813;DHT22;12087;45.190;5.688;2022-09-28T12:23:01;15.10;99.90
23813;DHT22;12087;45.190;5.688;2022-09-28T12:28:30;15.20;99.90
23813;DHT22;12087;45.190;5.688;2022-09-28T12:34:01;15.30;99.90
23813;DHT22;12087;45.190;5.688;2022-09-28T12:45:46;15.50;99.90
23813;DHT22;12087;45.190;5.688;2022-09-28T12:51:22;15.70;99.90
23813;DHT22;12087;45.190;5.688;2022-09-28T12:57:00;16.10;99.90
23813;DHT22;12087;45.190;5.688;2022-09-28T13:02:56;16.50;99.90
23813;DHT22;12087;45.190;5.688;2022-09-28T13:30:28;16.50;99.90
23813;DHT22;12087;45.190;5.688;2022-09-28T13:35:50;16.50;99.90
23813;DHT22;12087;45.190;5.688;2022-09-28T13:41:24;16.50;99.90
23813;DHT22;12087;45.190;5.688;2022-09-28T13:47:00;16.70;99.90
23813;DHT22;12087;45.190;5.688;2022-09-28T13:52:35;16.70;99.90
23813;DHT22;12087;45.190;5.688;2022-09-28T13:58:04;16.80;99.90
23813;DHT22;12087;45.190;5.688;2022-09-28T14:03:53;16.80;99.90
23813;DHT22;12087;45.190;5.688;2022-09-28T14:09:39;16.80;99.90
23813;DHT22;12087;45.190;5.688;2022-09-28T14:15:27;16.90;99.90
23813;DHT22;12087;45.190;5.688;2022-09-28T14:27:21;16.90;99.90
23813;DHT22;12087;45.190;5.688;2022-09-28T14:32:52;16.90;99.90
23813;DHT22;12087;45.190;5.688;2022-09-28T14:38:18;16.90;99.90
23813;DHT22;12087;45.190;5.688;2022-09-28T14:44:07;16.90;99.90
23813;DHT22;12087;45.190;5.688;2022-09-28T14:49:58;16.90;99.90
23813;DHT22;12087;45.190;5.688;2022-09-28T14:55:26;16.80;99.90
23813;DHT22;12087;45.190;5.688;2022-09-28T15:00:57;16.70;99.90
23813;DHT22;12087;45.190;5.688;2022-09-28T15:06:21;16.60;99.90
23813;DHT22;12087;45.190;5.688;2022-09-28T15:11:44;16.60;99.90
23813;DHT22;12087;45.190;5.688;2022-09-28T15:37:34;15.80;99.90
23813;DHT22;12087;45.190;5.688;2022-09-28T15:55:29;15.40;99.90
23813;DHT22;12087;45.190;5.688;2022-09-28T16:01:27;15.30;99.90
23813;DHT22;12087;45.190;5.688;2022-09-28T16:07:15;15.30;99.90
23813;DHT22;12087;45.190;5.688;2022-09-28T16:12:44;15.20;99.90
23813;DHT22;12087;45.190;5.688;2022-09-28T16:18:16;15.20;99.90
23813;DHT22;12087;45.190;5.688;2022-09-28T16:23:40;15.20;99.90
23813;DHT22;12087;45.190;5.688;2022-09-28T16:29:23;15.10;99.90
23813;DHT22;12087;45.190;5.688;2022-09-28T16:34:45;15.10;99.90
23813;DHT22;12087;45.190;5.688;2022-09-28T16:40:12;15.10;99.90
23813;DHT22;12087;45.190;5.688;2022-09-28T16:45:37;15.10;99.90
23813;DHT22;12087;45.190;5.688;2022-09-28T16:50:59;15.00;99.90
23813;DHT22;12087;45.190;5.688;2022-09-28T16:56:22;15.00;99.90
23813;DHT22;12087;45.190;5.688;2022-09-28T17:01:46;14.90;99.90
23813;DHT22;12087;45.190;5.688;2022-09-28T17:07:10;15.00;99.90
23813;DHT22;12087;45.190;5.688;2022-09-28T17:12:34;14.90;99.90
23813;DHT22;12087;45.190;5.688;2022-09-28T17:18:01;15.00;99.90
23813;DHT22;12087;45.190;5.688;2022-09-28T17:23:30;14.90;99.90
23813;DHT22;12087;45.190;5.688;2022-09-28T17:28:52;14.90;99.90
23813;DHT22;12087;45.190;5.688;2022-09-28T17:34:19;14.90;99.90
23813;DHT22;12087;45.190;5.688;2022-09-28T17:39:41;14.80;99.90
23813;DHT22;12087;45.190;5.688;2022-09-28T17:45:04;14.70;99.90
23813;DHT22;12087;45.190;5.688;2022-09-28T17:50:30;14.70;99.90
23813;DHT22;12087;45.190;5.688;2022-09-28T17:55:53;14.60;99.90
23813;DHT22;12087;45.190;5.688;2022-09-28T18:01:15;14.60;99.90
23813;DHT22;12087;45.190;5.688;2022-09-28T18:06:42;14.50;99.90
23813;DHT22;12087;45.190;5.688;2022-09-28T18:12:07;14.50;99.90
23813;DHT22;12087;45.190;5.688;2022-09-28T18:17:29;14.50;99.90
23813;DHT22;12087;45.190;5.688;2022-09-28T18:35:15;14.50;99.90
23813;DHT22;12087;45.190;5.688;2022-09-28T18:40:38;14.50;99.90
23813;DHT22;12087;45.190;5.688;2022-09-28T18:46:06;14.40;99.90
23813;DHT22;12087;45.190;5.688;2022-09-28T18:51:29;14.40;99.90
23813;DHT22;12087;45.190;5.688;2022-09-28T19:03:47;14.30;99.90
23813;DHT22;12087;45.190;5.688;2022-09-28T19:09:10;14.30;99.90
23813;DHT22;12087;45.190;5.688;2022-09-28T19:14:35;14.30;99.90
23813;DHT22;12087;45.190;5.688;2022-09-28T19:19:59;14.30;99.90
23813;DHT22;12087;45.190;5.688;2022-09-28T19:25:21;14.20;99.90
23813;DHT22;12087;45.190;5.688;2022-09-28T19:30:44;14.20;99.90
23813;DHT22;12087;45.190;5.688;2022-09-28T19:36:09;14.20;99.90
23813;DHT22;12087;45.190;5.688;2022-09-28T19:41:32;14.20;99.90
23813;DHT22;12087;45.190;5.688;2022-09-28T19:47:05;14.10;99.90
23813;DHT22;12087;45.190;5.688;2022-09-28T19:52:29;14.20;99.90
23813;DHT22;12087;45.190;5.688;2022-09-28T20:04:09;14.10;99.90
23813;DHT22;12087;45.190;5.688;2022-09-28T20:09:33;14.10;99.90
23813;DHT22;12087;45.190;5.688;2022-09-28T20:14:55;14.10;99.90
23813;DHT22;12087;45.190;5.688;2022-09-28T20:20:17;14.10;99.90
23813;DHT22;12087;45.190;5.688;2022-09-28T20:25:41;14.00;99.90
23813;DHT22;12087;45.190;5.688;2022-09-28T20:31:04;14.00;99.90
23813;DHT22;12087;45.190;5.688;2022-09-28T20:36:26;14.00;99.90
23813;DHT22;12087;45.190;5.688;2022-09-28T20:41:53;14.00;99.90
23813;DHT22;12087;45.190;5.688;2022-09-28T20:47:15;14.00;99.90
23813;DHT22;12087;45.190;5.688;2022-09-28T20:52:38;13.90;99.90
23813;DHT22;12087;45.190;5.688;2022-09-28T20:58:02;13.90;99.90
23813;DHT22;12087;45.190;5.688;2022-09-28T21:03:25;13.90;99.90
23813;DHT22;12087;45.190;5.688;2022-09-28T21:08:47;14.00;99.90
23813;DHT22;12087;45.190;5.688;2022-09-28T21:14:12;13.90;99.90
23813;DHT22;12087;45.190;5.688;2022-09-28T21:19:34;13.90;99.90
23813;DHT22;12087;45.190;5.688;2022-09-28T21:24:57;13.90;99.90
23813;DHT22;12087;45.190;5.688;2022-09-28T21:30:20;14.00;99.90
23813;DHT22;12087;45.190;5.688;2022-09-28T21:35:43;14.00;99.90
23813;DHT22;12087;45.190;5.688;2022-09-28T21:41:05;14.00;99.90
23813;DHT22;12087;45.190;5.688;2022-09-28T21:46:29;13.90;99.90
23813;DHT22;12087;45.190;5.688;2022-09-28T21:51:53;13.90;99.90
23813;DHT22;12087;45.190;5.688;2022-09-28T21:57:16;13.80;99.90
23813;DHT22;12087;45.190;5.688;2022-09-28T22:02:40;13.80;99.90
23813;DHT22;12087;45.190;5.688;2022-09-28T22:08:02;13.80;99.90
23813;DHT22;12087;45.190;5.688;2022-09-28T22:13:25;13.80;99.90
23813;DHT22;12087;45.190;5.688;2022-09-28T22:18:48;13.70;99.90
23813;DHT22;12087;45.190;5.688;2022-09-28T22:24:10;13.70;99.90
23813;DHT22;12087;45.190;5.688;2022-09-28T22:29:33;13.70;99.90
23813;DHT22;12087;45.190;5.688;2022-09-28T22:34:57;13.80;99.90
23813;DHT22;12087;45.190;5.688;2022-09-28T22:40:19;13.80;99.90
23813;DHT22;12087;45.190;5.688;2022-09-28T22:45:42;13.80;99.90
23813;DHT22;12087;45.190;5.688;2022-09-28T22:51:06;13.80;99.90
23813;DHT22;12087;45.190;5.688;2022-09-28T22:56:28;13.80;99.90
23813;DHT22;12087;45.190;5.688;2022-09-28T23:01:51;13.90;99.90
23813;DHT22;12087;45.190;5.688;2022-09-28T23:07:14;13.80;99.90
23813;DHT22;12087;45.190;5.688;2022-09-28T23:12:36;13.80;99.90
23813;DHT22;12087;45.190;5.688;2022-09-28T23:17:59;13.80;99.90
23813;DHT22;12087;45.190;5.688;2022-09-28T23:23:23;13.70;99.90
23813;DHT22;12087;45.190;5.688;2022-09-28T23:28:45;13.70;99.90
23813;DHT22;12087;45.190;5.688;2022-09-28T23:34:09;13.70;99.90
23813;DHT22;12087;45.190;5.688;2022-09-28T23:39:33;13.60;99.90
23813;DHT22;12087;45.190;5.688;2022-09-28T23:44:55;13.60;99.90
23813;DHT22;12087;45.190;5.688;2022-09-28T23:50:17;13.60;99.90
23813;DHT22;12087;45.190;5.688;2022-09-28T23:55:41;13.60;99.90
